Time;durP1;ratioP1;P1;durP2;ratioP2;P2;SDS_P1;SDS_P2;PMS_P1;PMS_P2;Temp;Humidity;BMP_temperature;BMP_pressure;BME280_temperature;BME280_humidity;BME280_pressure;Samples;Min_cycle;Max_cycle;Signal;HPM_P1;HPM_P2
2023/01/31 06:00:33;;;;;;;9.80;6.77;;;2.20;97.20;;;;;;1713879;28;20683;-69
2023/01/31 06:01:25;;;;;;;13.55;6.75;;;2.20;97.20;;;;;;1713979;28;20213;-69
2023/01/31 06:02:17;;;;;;;9.63;7.05;;;2.20;97.20;;;;;;1710374;28;20636;-68
2023/01/31 06:03:09;;;;;;;7.40;6.70;;;2.20;97.20;;;;;;1707100;28;20202;-68
2023/01/31 06:04:00;;;;;;;15.60;7.25;;;2.20;97.20;;;;;;1706836;28;20206;-68
2023/01/31 06:04:51;;;;;;;9.25;7.18;;;2.10;97.20;;;;;;1708252;28;20203;-68
2023/01/31 06:05:43;;;;;;;9.97;6.53;;;2.10;97.20;;;;;;1713786;28;20222;-68
2023/01/31 06:06:33;;;;;;;10.00;6.78;;;2.10;97.20;;;;;;1713995;28;20580;-68
2023/01/31 06:07:25;;;;;;;12.57;7.30;;;2.10;97.20;;;;;;1714142;28;20567;-68
2023/01/31 06:08:16;;;;;;;12.90;7.05;;;2.10;97.20;;;;;;1713768;28;20592;-68
2023/01/31 06:09:08;;;;;;;11.05;7.05;;;2.10;97.20;;;;;;1714034;28;20194;-68
2023/01/31 06:09:59;;;;;;;9.68;6.95;;;2.10;97.20;;;;;;1713918;28;20202;-68
2023/01/31 06:10:50;;;;;;;10.93;7.53;;;2.10;97.20;;;;;;1713921;28;20221;-68
2023/01/31 06:11:41;;;;;;;10.43;6.78;;;2.10;97.20;;;;;;1713559;28;20452;-68
2023/01/31 06:12:33;;;;;;;8.40;5.97;;;2.10;97.20;;;;;;1712130;28;20193;-68
2023/01/31 06:13:24;;;;;;;11.35;6.97;;;2.00;97.20;;;;;;1713945;28;20206;-68
2023/01/31 06:14:16;;;;;;;8.40;5.77;;;2.00;97.20;;;;;;1713185;28;20206;-68
2023/01/31 06:15:07;;;;;;;10.20;7.20;;;2.00;97.20;;;;;;1713693;28;20206;-68
2023/01/31 06:16:00;;;;;;;12.10;6.60;;;2.00;97.20;;;;;;1713892;28;20245;-68
2023/01/31 06:16:51;;;;;;;9.90;7.32;;;2.00;97.20;;;;;;1713870;28;20205;-68
2023/01/31 06:17:43;;;;;;;10.50;6.57;;;2.00;97.20;;;;;;1713827;28;20198;-68
2023/01/31 06:18:34;;;;;;;10.18;6.30;;;2.00;97.20;;;;;;1713936;28;20596;-68
2023/01/31 06:19:26;;;;;;;11.85;6.70;;;2.00;97.20;;;;;;1720470;28;20201;-68
2023/01/31 06:20:16;;;;;;;7.60;6.07;;;2.00;97.20;;;;;;1719932;28;20209;-71
2023/01/31 06:21:10;;;;;;;12.40;6.97;;;1.90;97.20;;;;;;1720581;28;20710;-69
2023/01/31 06:22:01;;;;;;;8.55;6.55;;;1.90;97.20;;;;;;1714342;28;20519;-68
2023/01/31 06:22:53;;;;;;;9.90;6.77;;;1.90;97.20;;;;;;1707297;28;20265;-69
2023/01/31 06:23:45;;;;;;;10.27;7.25;;;1.90;97.20;;;;;;1707264;28;20585;-69
2023/01/31 06:24:36;;;;;;;8.77;6.68;;;1.90;97.20;;;;;;1706680;28;20256;-68
2023/01/31 06:25:27;;;;;;;10.90;7.10;;;1.90;97.20;;;;;;1707066;28;20203;-68
2023/01/31 06:26:19;;;;;;;10.23;6.87;;;1.90;97.20;;;;;;1707275;28;20202;-69
2023/01/31 06:27:10;;;;;;;8.73;7.22;;;1.90;97.20;;;;;;1706931;28;20699;-68
2023/01/31 06:28:01;;;;;;;10.03;6.17;;;1.90;97.20;;;;;;1706940;28;20574;-68
2023/01/31 06:28:52;;;;;;;7.97;6.35;;;1.90;97.20;;;;;;1710233;28;20197;-69
2023/01/31 06:29:44;;;;;;;10.53;6.10;;;1.90;97.20;;;;;;1713368;28;20413;-69
2023/01/31 06:30:35;;;;;;;8.95;7.10;;;1.90;97.20;;;;;;1713273;28;20233;-69
2023/01/31 06:31:28;;;;;;;11.83;6.67;;;1.90;97.20;;;;;;1712092;28;20293;-67
2023/01/31 06:32:18;;;;;;;10.38;6.65;;;1.90;97.20;;;;;;1713645;28;20947;-67
2023/01/31 06:33:11;;;;;;;8.47;6.57;;;1.90;97.20;;;;;;1713789;28;20585;-68
2023/01/31 06:34:02;;;;;;;8.13;6.35;;;1.90;97.20;;;;;;1713162;28;20221;-68
2023/01/31 06:34:54;;;;;;;8.70;6.47;;;1.90;97.20;;;;;;1713712;28;20208;-68
2023/01/31 06:35:44;;;;;;;8.85;6.40;;;1.90;97.20;;;;;;1713655;28;20453;-68
2023/01/31 06:36:36;;;;;;;12.77;6.67;;;1.90;97.20;;;;;;1713803;28;20197;-68
2023/01/31 06:37:27;;;;;;;11.25;7.03;;;1.90;97.20;;;;;;1713418;28;20695;-68
2023/01/31 06:38:18;;;;;;;13.10;6.60;;;1.90;97.20;;;;;;1708473;28;20595;-68
2023/01/31 06:39:10;;;;;;;11.25;7.60;;;1.90;97.20;;;;;;1712360;28;20282;-68
2023/01/31 06:40:01;;;;;;;10.48;7.03;;;1.90;97.20;;;;;;1713500;28;20206;-68
2023/01/31 06:40:52;;;;;;;12.05;7.95;;;1.90;97.20;;;;;;1713512;28;20221;-68
2023/01/31 06:41:44;;;;;;;12.60;7.20;;;1.90;97.20;;;;;;1713621;28;20200;-68
2023/01/31 06:42:35;;;;;;;11.35;7.03;;;1.90;97.20;;;;;;1713616;28;20599;-68
2023/01/31 06:43:26;;;;;;;8.80;7.10;;;1.90;97.20;;;;;;1713581;28;20268;-68
2023/01/31 06:44:17;;;;;;;10.38;7.38;;;1.90;97.20;;;;;;1713419;28;20676;-68
2023/01/31 06:45:10;;;;;;;10.53;6.37;;;1.90;97.20;;;;;;1713662;28;20562;-68
2023/01/31 06:46:01;;;;;;;10.05;6.38;;;1.90;97.20;;;;;;1713537;28;20580;-68
2023/01/31 06:46:54;;;;;;;9.73;6.47;;;1.80;97.20;;;;;;1713619;28;20230;-68
2023/01/31 06:47:45;;;;;;;10.18;7.03;;;1.80;97.20;;;;;;1712490;28;20679;-68
2023/01/31 06:48:36;;;;;;;6.95;5.75;;;1.80;97.20;;;;;;1706778;28;20238;-68
2023/01/31 06:49:27;;;;;;;7.35;6.38;;;1.80;97.20;;;;;;1706925;29;20206;-68
2023/01/31 06:50:19;;;;;;;8.30;6.47;;;1.80;97.20;;;;;;1706793;28;20214;-68
2023/01/31 06:51:10;;;;;;;10.45;6.88;;;1.80;97.20;;;;;;1707180;29;20457;-68
2023/01/31 06:52:01;;;;;;;8.00;6.50;;;1.80;97.20;;;;;;1706974;28;20657;-68
2023/01/31 06:52:53;;;;;;;7.93;6.38;;;1.80;97.20;;;;;;1706883;29;20206;-68
2023/01/31 06:53:44;;;;;;;9.48;6.82;;;1.80;97.20;;;;;;1706853;29;20281;-68
2023/01/31 06:54:35;;;;;;;10.30;7.13;;;1.80;97.20;;;;;;1711314;28;20314;-68
2023/01/31 06:55:29;;;;;;;8.10;6.90;;;1.80;97.20;;;;;;1713718;28;20201;-69
2023/01/31 06:56:20;;;;;;;10.75;8.07;;;1.80;97.20;;;;;;1713594;28;20225;-68
2023/01/31 06:57:12;;;;;;;9.53;6.63;;;1.80;97.20;;;;;;1713805;28;20209;-68
2023/01/31 06:58:03;;;;;;;9.88;7.10;;;1.70;97.20;;;;;;1710044;28;20213;-69
2023/01/31 06:58:54;;;;;;;9.00;6.50;;;1.70;97.20;;;;;;1709488;28;20204;-68
2023/01/31 06:59:45;;;;;;;10.45;7.05;;;1.70;97.20;;;;;;1713388;28;20555;-68
2023/01/31 07:00:37;;;;;;;13.37;7.80;;;1.70;97.20;;;;;;1713352;28;20243;-68
2023/01/31 07:01:27;;;;;;;10.68;6.90;;;1.70;97.20;;;;;;1713583;28;20210;-68
2023/01/31 07:02:20;;;;;;;8.37;6.87;;;1.70;97.20;;;;;;1713274;28;20687;-67
2023/01/31 07:03:12;;;;;;;8.45;6.32;;;1.70;97.20;;;;;;1713357;28;20202;-68
2023/01/31 07:04:03;;;;;;;12.02;6.38;;;1.70;97.20;;;;;;1713664;28;20228;-67
2023/01/31 07:04:54;;;;;;;10.52;7.00;;;1.70;97.20;;;;;;1714066;28;20201;-68
2023/01/31 07:05:47;;;;;;;10.95;7.25;;;1.70;97.20;;;;;;1713981;28;20201;-67
2023/01/31 07:06:38;;;;;;;10.02;7.35;;;1.70;97.20;;;;;;1713796;28;20750;-68
2023/01/31 07:07:30;;;;;;;14.10;7.57;;;1.70;97.20;;;;;;1713881;28;20210;-67
2023/01/31 07:08:21;;;;;;;9.25;7.03;;;1.70;97.20;;;;;;1713255;28;20452;-67
2023/01/31 07:09:13;;;;;;;8.77;7.10;;;1.70;97.20;;;;;;1717638;28;20228;-68
2023/01/31 07:10:04;;;;;;;11.70;7.07;;;1.70;97.20;;;;;;1720604;28;20228;-68
2023/01/31 07:10:56;;;;;;;9.68;7.20;;;1.70;97.20;;;;;;1720642;28;20600;-68
2023/01/31 07:11:47;;;;;;;8.05;7.00;;;1.70;97.20;;;;;;1720618;28;20205;-69
2023/01/31 07:12:39;;;;;;;14.50;7.23;;;1.70;97.20;;;;;;1720663;28;20207;-67
2023/01/31 07:13:30;;;;;;;12.10;7.85;;;1.70;97.20;;;;;;1720612;28;20673;-68
2023/01/31 07:14:22;;;;;;;8.60;7.32;;;1.70;97.20;;;;;;1720389;28;20204;-68
2023/01/31 07:15:12;;;;;;;11.77;7.45;;;1.80;97.20;;;;;;1720597;28;20201;-67
2023/01/31 07:16:05;;;;;;;9.70;7.47;;;1.80;97.20;;;;;;1720678;28;20201;-67
2023/01/31 07:16:55;;;;;;;14.45;7.90;;;1.80;97.20;;;;;;1720708;28;20834;-67
2023/01/31 07:17:48;;;;;;;11.30;6.70;;;1.80;97.20;;;;;;1720603;28;20263;-67
2023/01/31 07:18:39;;;;;;;13.38;7.60;;;1.80;97.20;;;;;;1720308;28;20204;-68
2023/01/31 07:19:31;;;;;;;10.70;7.50;;;1.80;97.20;;;;;;1719967;28;20207;-67
2023/01/31 07:20:22;;;;;;;9.18;6.72;;;1.80;97.20;;;;;;1720432;28;20212;-68
2023/01/31 07:21:13;;;;;;;10.00;6.80;;;1.80;97.20;;;;;;1720621;28;20207;-68
2023/01/31 07:22:04;;;;;;;9.70;6.55;;;1.80;97.20;;;;;;1720707;28;20583;-67
2023/01/31 07:22:56;;;;;;;9.63;6.73;;;1.90;97.20;;;;;;1720628;28;20201;-67
2023/01/31 07:23:47;;;;;;;10.60;6.80;;;1.90;97.20;;;;;;1720616;28;20727;-68
2023/01/31 07:24:39;;;;;;;8.60;6.80;;;1.90;97.20;;;;;;1720284;28;20575;-68
2023/01/31 07:25:32;;;;;;;13.98;7.50;;;1.90;97.20;;;;;;1720526;28;20347;-68
2023/01/31 07:26:24;;;;;;;16.92;7.22;;;1.90;97.20;;;;;;1720605;28;20292;-68
2023/01/31 07:27:15;;;;;;;7.30;6.43;;;1.90;97.20;;;;;;1720589;28;20212;-68
2023/01/31 07:28:11;;;;;;;11.67;6.17;;;1.90;97.20;;;;;;1720653;28;20203;-67
2023/01/31 07:29:05;;;;;;;9.55;7.28;;;1.90;97.20;;;;;;1717721;28;20467;-68
2023/01/31 07:29:56;;;;;;;7.70;6.88;;;1.90;97.20;;;;;;1713965;28;20600;-68
2023/01/31 07:30:47;;;;;;;13.73;6.80;;;2.00;97.20;;;;;;1713784;28;20240;-67
2023/01/31 07:31:39;;;;;;;10.87;7.10;;;2.00;97.20;;;;;;1713852;28;20215;-68
2023/01/31 07:32:30;;;;;;;9.00;6.78;;;2.00;97.20;;;;;;1713820;28;20260;-68
2023/01/31 07:33:23;;;;;;;7.30;6.60;;;2.00;97.20;;;;;;1713138;28;20260;-68
2023/01/31 07:34:14;;;;;;;11.93;7.50;;;2.00;97.20;;;;;;1713537;28;20217;-68
2023/01/31 07:35:07;;;;;;;11.60;7.13;;;2.10;97.20;;;;;;1713945;28;20208;-68
2023/01/31 07:35:59;;;;;;;11.30;8.13;;;2.10;97.20;;;;;;1713865;28;20444;-67
2023/01/31 07:36:51;;;;;;;12.10;7.63;;;2.10;97.20;;;;;;1713600;28;20209;-68
2023/01/31 07:37:42;;;;;;;9.68;6.63;;;2.10;97.20;;;;;;1713189;28;20206;-68
2023/01/31 07:38:35;;;;;;;10.67;6.53;;;2.10;97.20;;;;;;1713525;28;20210;-67
2023/01/31 07:39:25;;;;;;;7.38;6.25;;;2.10;97.20;;;;;;1718436;28;20213;-68
2023/01/31 07:40:17;;;;;;;11.00;6.70;;;2.20;97.20;;;;;;1714008;28;20192;-67
2023/01/31 07:41:10;;;;;;;8.88;6.70;;;2.20;97.20;;;;;;1713754;28;20286;-68
2023/01/31 07:42:02;;;;;;;11.15;7.22;;;2.20;97.20;;;;;;1713244;28;20206;-68
2023/01/31 07:42:57;;;;;;;11.32;6.75;;;2.20;97.20;;;;;;1713129;28;20221;-68
2023/01/31 07:43:48;;;;;;;10.98;7.30;;;2.20;97.20;;;;;;1713446;28;20205;-68
2023/01/31 07:44:39;;;;;;;12.20;7.30;;;2.20;97.20;;;;;;1713237;28;20231;-68
2023/01/31 07:45:31;;;;;;;11.80;7.70;;;2.20;97.20;;;;;;1713871;28;20237;-68
2023/01/31 07:46:22;;;;;;;12.95;6.63;;;2.30;97.20;;;;;;1714691;28;20559;-67
2023/01/31 07:47:13;;;;;;;9.30;6.70;;;2.30;97.20;;;;;;1713931;28;20562;-67
2023/01/31 07:48:05;;;;;;;11.32;7.90;;;2.30;97.20;;;;;;1713856;28;20205;-68
2023/01/31 07:48:58;;;;;;;13.02;7.03;;;2.30;97.20;;;;;;1713892;28;20664;-68
2023/01/31 07:49:49;;;;;;;14.25;7.25;;;2.40;97.20;;;;;;1714685;28;20202;-68
2023/01/31 07:50:41;;;;;;;11.82;6.93;;;2.40;97.20;;;;;;1720427;28;20714;-67
2023/01/31 07:51:32;;;;;;;8.02;6.68;;;2.40;97.20;;;;;;1720538;28;20213;-68
2023/01/31 07:52:23;;;;;;;14.13;8.10;;;2.40;97.20;;;;;;1720520;28;20207;-67
2023/01/31 07:53:14;;;;;;;13.65;7.53;;;2.50;97.20;;;;;;1720361;28;20444;-67
2023/01/31 07:54:06;;;;;;;10.37;7.37;;;2.50;97.20;;;;;;1720310;28;20201;-67
2023/01/31 07:54:57;;;;;;;10.57;6.72;;;2.50;97.20;;;;;;1720449;28;20212;-68
2023/01/31 07:55:48;;;;;;;12.43;7.03;;;2.60;97.20;;;;;;1720448;28;20212;-68
2023/01/31 07:56:39;;;;;;;10.55;6.85;;;2.60;97.20;;;;;;1720451;28;20205;-68
2023/01/31 07:57:31;;;;;;;8.37;6.80;;;2.60;97.20;;;;;;1720681;28;20205;-67
2023/01/31 07:58:22;;;;;;;9.45;7.28;;;2.60;97.20;;;;;;1720514;28;20289;-68
2023/01/31 07:59:13;;;;;;;8.20;7.13;;;2.70;97.20;;;;;;1720624;28;20205;-67
2023/01/31 08:03:31;;;;;;;13.45;7.78;;;2.70;97.20;;;;;;1717743;28;20205;-68
2023/01/31 08:03:46;;;;;;;10.40;7.00;;;2.80;97.20;;;;;;1694313;29;20219;-68
2023/01/31 08:04:38;;;;;;;14.13;7.22;;;2.90;97.20;;;;;;1700981;28;20215;-68
2023/01/31 08:05:30;;;;;;;10.43;6.60;;;2.90;97.20;;;;;;1715054;28;20214;-68
2023/01/31 08:06:21;;;;;;;13.20;7.00;;;3.00;97.20;;;;;;1715144;28;20202;-68
2023/01/31 08:07:12;;;;;;;11.70;6.90;;;3.00;97.20;;;;;;1715100;28;20205;-68
2023/01/31 08:08:09;;;;;;;11.50;7.03;;;3.00;97.20;;;;;;1715227;28;20210;-67
2023/01/31 08:09:01;;;;;;;10.52;7.18;;;3.10;97.20;;;;;;1715102;28;20225;-68
2023/01/31 08:09:51;;;;;;;10.48;7.65;;;3.10;97.20;;;;;;1716117;28;20206;-67
2023/01/31 08:10:45;;;;;;;10.10;6.93;;;3.20;97.20;;;;;;1721625;28;20229;-68
2023/01/31 08:11:36;;;;;;;14.40;7.68;;;3.30;97.20;;;;;;1721764;28;20213;-68
2023/01/31 08:12:29;;;;;;;11.03;6.60;;;3.30;97.20;;;;;;1721724;28;20264;-68
2023/01/31 08:13:21;;;;;;;9.52;7.18;;;3.40;97.20;;;;;;1721599;28;20471;-68
2023/01/31 08:14:13;;;;;;;12.55;7.43;;;3.40;97.20;;;;;;1721438;28;20200;-68
2023/01/31 08:15:04;;;;;;;12.63;7.63;;;3.50;97.20;;;;;;1721640;28;20291;-68
2023/01/31 08:15:56;;;;;;;12.20;7.40;;;3.50;97.20;;;;;;1721712;28;20201;-68
2023/01/31 08:16:47;;;;;;;12.85;7.00;;;3.60;97.20;;;;;;1721692;28;20216;-68
2023/01/31 08:17:38;;;;;;;10.67;7.67;;;3.70;97.20;;;;;;1721729;28;20288;-68
2023/01/31 08:18:29;;;;;;;9.45;6.32;;;3.70;97.20;;;;;;1721687;28;20618;-68
2023/01/31 08:19:21;;;;;;;9.35;6.50;;;3.80;97.20;;;;;;1721722;28;20208;-67
2023/01/31 08:20:14;;;;;;;12.02;7.00;;;3.90;97.20;;;;;;1717546;28;20198;-68
2023/01/31 08:21:06;;;;;;;9.95;6.75;;;4.00;97.20;;;;;;1715061;28;20209;-68
2023/01/31 08:21:57;;;;;;;10.55;6.85;;;4.00;97.20;;;;;;1714901;28;20209;-68
2023/01/31 08:22:49;;;;;;;10.93;7.27;;;4.10;97.20;;;;;;1714966;28;20205;-68
2023/01/31 08:23:40;;;;;;;10.43;7.10;;;4.10;97.20;;;;;;1714896;28;20209;-67
2023/01/31 08:24:32;;;;;;;14.48;7.60;;;4.20;97.20;;;;;;1714717;28;20268;-68
2023/01/31 08:25:25;;;;;;;9.45;6.47;;;4.30;97.20;;;;;;1714840;28;20588;-68
2023/01/31 08:26:19;;;;;;;9.20;6.88;;;4.30;97.20;;;;;;1714846;28;20201;-68
2023/01/31 08:27:10;;;;;;;11.75;6.75;;;4.40;97.20;;;;;;1715448;28;20233;-68
2023/01/31 08:28:02;;;;;;;9.80;6.93;;;4.50;97.20;;;;;;1714924;28;20205;-68
2023/01/31 08:28:53;;;;;;;15.15;6.90;;;4.50;97.20;;;;;;1714976;28;20579;-68
2023/01/31 08:29:45;;;;;;;8.98;6.65;;;4.60;97.20;;;;;;1714938;28;20201;-68
2023/01/31 08:30:39;;;;;;;9.75;6.85;;;4.70;97.20;;;;;;1714583;28;20225;-68
2023/01/31 08:31:30;;;;;;;8.55;7.38;;;4.70;97.20;;;;;;1715147;28;20212;-67
2023/01/31 08:32:21;;;;;;;9.05;6.65;;;4.80;97.20;;;;;;1714807;28;20201;-68
2023/01/31 08:33:13;;;;;;;11.03;7.60;;;4.80;97.20;;;;;;1714953;28;20202;-68
2023/01/31 08:34:07;;;;;;;10.70;7.50;;;5.00;97.20;;;;;;1714560;28;20202;-68
2023/01/31 08:34:57;;;;;;;10.05;7.65;;;5.10;97.20;;;;;;1714776;28;20212;-68
2023/01/31 08:35:50;;;;;;;10.40;7.00;;;5.20;97.20;;;;;;1714912;28;20208;-68
2023/01/31 08:36:42;;;;;;;9.93;7.55;;;5.30;97.20;;;;;;1717387;28;20213;-68
2023/01/31 08:37:34;;;;;;;11.55;7.57;;;5.40;97.20;;;;;;1721211;28;20220;-68
2023/01/31 08:38:25;;;;;;;9.10;7.13;;;5.50;97.20;;;;;;1721539;28;20209;-67
2023/01/31 08:39:16;;;;;;;12.07;7.70;;;5.60;97.20;;;;;;1721602;28;20213;-67
2023/01/31 08:40:08;;;;;;;7.85;6.07;;;5.60;97.20;;;;;;1721619;28;20583;-68
2023/01/31 08:41:00;;;;;;;8.73;6.65;;;5.70;97.20;;;;;;1721486;28;20220;-68
2023/01/31 08:41:52;;;;;;;9.85;6.93;;;5.80;97.20;;;;;;1721476;28;20201;-68
2023/01/31 08:42:42;;;;;;;8.60;6.47;;;5.80;97.20;;;;;;1721503;28;20197;-67
2023/01/31 08:43:36;;;;;;;12.40;7.30;;;5.80;97.20;;;;;;1721490;28;20207;-68
2023/01/31 08:44:28;;;;;;;10.85;6.35;;;5.90;97.20;;;;;;1721377;28;20206;-68
2023/01/31 08:45:19;;;;;;;9.60;6.85;;;6.00;97.20;;;;;;1721367;28;20209;-68
2023/01/31 08:46:11;;;;;;;10.70;6.13;;;6.00;97.20;;;;;;1721538;28;20398;-69
2023/01/31 08:47:02;;;;;;;8.57;6.10;;;6.10;97.20;;;;;;1716085;28;20217;-68
2023/01/31 08:47:54;;;;;;;9.50;6.07;;;6.20;97.20;;;;;;1714812;28;20209;-68
2023/01/31 08:48:46;;;;;;;11.55;6.35;;;6.30;97.20;;;;;;1714791;28;20610;-68
2023/01/31 08:49:38;;;;;;;8.75;6.75;;;6.30;97.20;;;;;;1714797;28;20209;-68
2023/01/31 08:50:31;;;;;;;6.80;6.10;;;6.40;97.20;;;;;;1714632;28;20317;-68
2023/01/31 08:51:24;;;;;;;14.18;7.25;;;6.50;97.20;;;;;;1714861;28;20217;-68
2023/01/31 08:52:14;;;;;;;9.48;5.97;;;6.60;97.20;;;;;;1714747;28;20209;-68
2023/01/31 08:53:07;;;;;;;9.90;6.73;;;6.70;97.20;;;;;;1714732;28;20205;-68
2023/01/31 08:53:57;;;;;;;7.82;5.80;;;6.70;97.20;;;;;;1714852;28;20198;-68
2023/01/31 08:54:49;;;;;;;10.50;6.30;;;6.70;97.20;;;;;;1714776;28;20398;-68
2023/01/31 08:55:40;;;;;;;9.93;5.35;;;6.70;97.20;;;;;;1714709;28;20205;-68
2023/01/31 08:56:31;;;;;;;9.70;5.33;;;6.70;97.20;;;;;;1715117;28;20206;-68
2023/01/31 08:57:22;;;;;;;10.30;5.40;;;6.70;97.20;;;;;;1721403;28;20247;-68
2023/01/31 08:58:14;;;;;;;9.60;6.03;;;6.70;97.20;;;;;;1721522;28;20215;-68
2023/01/31 08:59:05;;;;;;;13.70;5.75;;;6.80;97.20;;;;;;1721428;28;20229;-68
2023/01/31 08:59:57;;;;;;;9.27;5.60;;;6.80;97.20;;;;;;1721402;28;20620;-68
2023/01/31 09:00:48;;;;;;;11.52;6.10;;;6.90;97.20;;;;;;1721485;28;20711;-68
2023/01/31 09:01:41;;;;;;;10.32;5.68;;;6.90;97.20;;;;;;1721409;28;20204;-68
2023/01/31 09:02:31;;;;;;;13.32;5.88;;;7.00;97.20;;;;;;1721444;28;20243;-68
2023/01/31 09:03:23;;;;;;;10.87;5.30;;;7.10;97.20;;;;;;1721363;28;20212;-67
2023/01/31 09:04:14;;;;;;;8.27;5.25;;;7.20;97.20;;;;;;1721168;28;20216;-68
2023/01/31 09:05:07;;;;;;;9.33;5.00;;;7.30;97.20;;;;;;1721326;28;20211;-68
2023/01/31 09:05:59;;;;;;;13.93;6.50;;;7.40;97.20;;;;;;1721319;28;20209;-68
2023/01/31 09:06:53;;;;;;;8.77;5.10;;;7.40;97.20;;;;;;1718147;28;20202;-68
2023/01/31 09:07:44;;;;;;;10.20;5.43;;;7.50;97.20;;;;;;1714641;28;20213;-68
2023/01/31 09:08:36;;;;;;;8.97;5.37;;;7.60;97.20;;;;;;1714850;28;20205;-68
2023/01/31 09:09:27;;;;;;;8.95;5.63;;;7.70;97.20;;;;;;1714645;28;20210;-69
2023/01/31 09:10:19;;;;;;;11.23;5.80;;;7.90;97.20;;;;;;1714594;28;20202;-68
2023/01/31 09:11:15;;;;;;;10.05;4.53;;;8.00;97.20;;;;;;1714500;28;20228;-68
2023/01/31 09:12:07;;;;;;;7.78;5.35;;;8.30;97.20;;;;;;1714361;28;20217;-68
2023/01/31 09:12:59;;;;;;;9.27;4.85;;;8.60;97.20;;;;;;1714672;28;20223;-68
2023/01/31 09:13:50;;;;;;;12.43;5.05;;;8.90;97.20;;;;;;1714664;28;20206;-68
2023/01/31 09:14:41;;;;;;;7.40;4.50;;;9.30;97.20;;;;;;1714509;28;20205;-68
2023/01/31 09:15:32;;;;;;;9.30;5.15;;;9.60;97.20;;;;;;1714763;28;20205;-68
2023/01/31 09:16:24;;;;;;;11.00;4.90;;;9.80;97.20;;;;;;1714574;28;20655;-68
2023/01/31 09:17:15;;;;;;;8.40;4.80;;;9.90;97.20;;;;;;1719853;28;20511;-68
2023/01/31 09:18:06;;;;;;;9.20;4.30;;;10.00;97.20;;;;;;1721427;28;20197;-68
2023/01/31 09:18:57;;;;;;;11.95;4.50;;;9.90;97.20;;;;;;1721312;28;20201;-68
2023/01/31 09:19:49;;;;;;;5.40;4.20;;;9.90;97.20;;;;;;1721591;28;20197;-68
2023/01/31 09:20:40;;;;;;;9.88;5.00;;;9.70;97.20;;;;;;1721225;28;20644;-68
2023/01/31 09:21:32;;;;;;;7.37;3.93;;;9.60;97.20;;;;;;1721346;28;20610;-68
2023/01/31 09:22:24;;;;;;;10.50;4.65;;;9.50;97.20;;;;;;1722385;28;20340;-68
2023/01/31 09:23:16;;;;;;;7.25;4.90;;;9.30;97.20;;;;;;1721387;28;20276;-68
2023/01/31 09:24:10;;;;;;;8.93;4.80;;;9.20;97.20;;;;;;1721158;28;20205;-68
2023/01/31 09:25:02;;;;;;;6.25;4.43;;;9.20;97.20;;;;;;1721202;28;20205;-68
2023/01/31 09:25:54;;;;;;;6.63;4.38;;;9.40;97.20;;;;;;1721333;28;20288;-68
2023/01/31 09:26:44;;;;;;;11.00;5.22;;;9.70;97.20;;;;;;1719807;28;20208;-69
2023/01/31 09:27:38;;;;;;;7.63;4.33;;;10.10;97.20;;;;;;1714706;28;20206;-67
2023/01/31 09:28:29;;;;;;;8.68;4.60;;;10.60;97.20;;;;;;1714523;28;20237;-69
2023/01/31 09:29:20;;;;;;;8.90;4.38;;;11.20;97.20;;;;;;1714560;28;20694;-69
2023/01/31 09:30:12;;;;;;;10.63;4.97;;;11.70;97.20;;;;;;1714588;28;20213;-68
2023/01/31 09:31:04;;;;;;;8.25;4.72;;;12.50;97.20;;;;;;1714470;28;20228;-69
2023/01/31 09:31:56;;;;;;;8.88;4.68;;;13.70;97.20;;;;;;1714579;28;20202;-69
2023/01/31 09:32:48;;;;;;;10.15;4.97;;;14.20;97.20;;;;;;1714469;28;20206;-69
2023/01/31 09:33:41;;;;;;;7.57;4.25;;;14.30;97.20;;;;;;1714504;28;20268;-69
2023/01/31 09:34:32;;;;;;;7.90;4.28;;;14.20;97.20;;;;;;1714218;28;20294;-68
2023/01/31 09:35:23;;;;;;;9.45;5.40;;;13.70;97.20;;;;;;1714323;28;20206;-69
2023/01/31 09:36:17;;;;;;;8.23;4.30;;;13.30;97.20;;;;;;1714549;28;20202;-68
2023/01/31 09:37:07;;;;;;;12.70;4.57;;;12.70;97.20;;;;;;1718328;28;20208;-68
2023/01/31 09:38:00;;;;;;;6.77;4.70;;;12.30;97.20;;;;;;1721105;28;20223;-68
2023/01/31 09:38:54;;;;;;;9.52;4.40;;;11.80;97.20;;;;;;1721206;28;20586;-68
2023/01/31 09:39:45;;;;;;;10.85;4.25;;;11.20;97.20;;;;;;1721263;28;20205;-69
2023/01/31 09:40:39;;;;;;;9.10;4.75;;;10.80;97.20;;;;;;1721031;28;20224;-69
2023/01/31 09:41:35;;;;;;;8.25;4.20;;;10.50;97.20;;;;;;1721162;28;20197;-68
2023/01/31 09:42:30;;;;;;;9.90;4.97;;;10.20;97.20;;;;;;1721164;28;20620;-68
2023/01/31 09:43:26;;;;;;;9.80;4.80;;;10.00;97.20;;;;;;1721115;28;20616;-68
2023/01/31 09:44:20;;;;;;;10.95;5.15;;;9.80;97.20;;;;;;1720927;28;20212;-68
2023/01/31 09:45:15;;;;;;;9.55;4.30;;;9.70;97.20;;;;;;1721045;28;20205;-68
2023/01/31 09:46:11;;;;;;;7.60;5.47;;;9.50;97.20;;;;;;1721136;28;20212;-68
2023/01/31 09:47:09;;;;;;;8.30;5.35;;;9.40;97.20;;;;;;1718512;28;20202;-68
2023/01/31 09:48:03;;;;;;;10.43;5.00;;;9.40;97.20;;;;;;1714406;28;20213;-68
2023/01/31 09:48:58;;;;;;;7.07;4.90;;;9.40;97.20;;;;;;1714495;28;20740;-69
2023/01/31 09:49:55;;;;;;;9.10;4.43;;;9.40;97.20;;;;;;1714436;28;20213;-68
2023/01/31 09:50:53;;;;;;;6.80;4.53;;;9.30;97.20;;;;;;1714247;28;20225;-68
2023/01/31 09:51:44;;;;;;;8.77;4.68;;;9.30;97.20;;;;;;1714436;28;20221;-69
2023/01/31 09:52:38;;;;;;;6.70;4.80;;;9.20;97.20;;;;;;1714467;28;20257;-68
2023/01/31 09:53:34;;;;;;;8.85;4.55;;;9.00;97.20;;;;;;1714350;28;20202;-68
2023/01/31 09:54:29;;;;;;;8.30;4.65;;;8.90;97.20;;;;;;1714149;28;20206;-68
2023/01/31 09:55:27;;;;;;;8.40;4.30;;;8.80;97.20;;;;;;1714341;28;20586;-68
2023/01/31 09:56:26;;;;;;;7.65;4.38;;;8.70;97.20;;;;;;1714459;28;20276;-68
2023/01/31 09:57:26;;;;;;;8.13;4.65;;;8.60;97.20;;;;;;1718266;28;20660;-68
2023/01/31 09:58:24;;;;;;;6.30;3.97;;;8.60;97.20;;;;;;1721121;28;20209;-69
2023/01/31 09:59:22;;;;;;;7.20;4.18;;;8.50;97.20;;;;;;1720859;28;20189;-68
2023/01/31 10:00:21;;;;;;;8.15;4.80;;;8.60;97.20;;;;;;1721028;28;20205;-68
2023/01/31 10:01:20;;;;;;;9.27;4.53;;;8.50;97.20;;;;;;1721146;28;20575;-68
2023/01/31 10:02:30;;;;;;;9.75;4.60;;;8.50;97.20;;;;;;1721310;28;20205;-68
2023/01/31 10:03:40;;;;;;;6.90;4.40;;;8.50;97.20;;;;;;1720962;28;20209;-68
2023/01/31 10:04:48;;;;;;;6.75;4.10;;;8.50;97.20;;;;;;1720803;28;20640;-69
2023/01/31 10:05:46;;;;;;;8.43;4.10;;;8.40;97.20;;;;;;1720910;28;20205;-68
2023/01/31 10:06:48;;;;;;;11.82;4.80;;;8.30;97.20;;;;;;1720985;28;20228;-68
2023/01/31 10:07:46;;;;;;;8.25;4.00;;;8.20;97.20;;;;;;1714409;28;20657;-68
2023/01/31 10:08:47;;;;;;;8.38;4.25;;;8.20;97.20;;;;;;1714278;28;20214;-69
2023/01/31 10:09:43;;;;;;;9.90;4.85;;;8.10;97.20;;;;;;1714375;28;20216;-68
2023/01/31 10:10:37;;;;;;;7.35;4.30;;;8.00;97.20;;;;;;1714275;28;20226;-68
2023/01/31 10:11:35;;;;;;;6.72;4.35;;;7.80;97.20;;;;;;1714266;28;20266;-68
2023/01/31 10:12:32;;;;;;;11.38;4.15;;;7.70;97.20;;;;;;1714275;28;20218;-68
2023/01/31 10:13:30;;;;;;;7.60;4.00;;;7.60;97.20;;;;;;1714182;28;20205;-68
2023/01/31 10:14:31;;;;;;;5.53;3.70;;;7.50;97.20;;;;;;1714017;28;20296;-68
2023/01/31 10:15:32;;;;;;;9.48;4.43;;;7.40;97.20;;;;;;1714176;28;20236;-68
2023/01/31 10:16:27;;;;;;;9.52;4.63;;;7.30;97.20;;;;;;1714288;28;20206;-68
2023/01/31 10:17:22;;;;;;;6.85;4.18;;;7.30;97.20;;;;;;1717850;28;20196;-68
2023/01/31 10:18:18;;;;;;;10.65;5.00;;;7.20;97.20;;;;;;1721006;28;20201;-68
2023/01/31 10:19:19;;;;;;;10.63;4.55;;;7.20;97.20;;;;;;1720904;28;20229;-69
2023/01/31 10:20:20;;;;;;;8.15;4.32;;;7.10;97.20;;;;;;1720977;28;20209;-68
2023/01/31 10:21:17;;;;;;;6.03;4.00;;;7.00;97.20;;;;;;1721007;28;20659;-68
2023/01/31 10:22:14;;;;;;;8.13;4.05;;;7.00;97.20;;;;;;1720933;28;20209;-68
2023/01/31 10:23:11;;;;;;;8.27;3.78;;;6.90;97.20;;;;;;1720837;28;20208;-68
2023/01/31 10:24:12;;;;;;;7.05;4.15;;;6.80;97.20;;;;;;1720625;28;20694;-68
2023/01/31 10:25:17;;;;;;;6.15;3.80;;;6.80;97.20;;;;;;1720815;28;20197;-68
2023/01/31 10:26:13;;;;;;;7.68;4.00;;;6.80;97.20;;;;;;1720926;28;20205;-68
2023/01/31 10:27:12;;;;;;;7.68;3.70;;;6.70;97.20;;;;;;1718910;28;20205;-68
2023/01/31 10:28:08;;;;;;;7.75;4.50;;;6.70;97.20;;;;;;1714152;28;20213;-68
2023/01/31 10:29:05;;;;;;;8.50;4.07;;;6.70;97.20;;;;;;1714302;28;20202;-67
2023/01/31 10:29:59;;;;;;;7.78;4.15;;;6.70;97.20;;;;;;1714160;28;20206;-68
2023/01/31 10:30:56;;;;;;;6.57;3.88;;;6.70;97.20;;;;;;1714042;28;20237;-68
2023/01/31 10:31:53;;;;;;;9.88;4.90;;;6.70;97.20;;;;;;1714046;28;20265;-69
2023/01/31 10:32:50;;;;;;;7.72;3.83;;;6.70;97.20;;;;;;1714153;28;20210;-68
2023/01/31 10:33:51;;;;;;;8.77;4.10;;;6.70;97.20;;;;;;1714069;28;20550;-69
2023/01/31 10:34:48;;;;;;;7.95;4.00;;;6.70;97.20;;;;;;1713875;28;20213;-68
2023/01/31 10:35:43;;;;;;;10.60;4.32;;;6.70;97.20;;;;;;1714082;28;20438;-68
2023/01/31 10:36:38;;;;;;;8.52;3.50;;;6.70;97.20;;;;;;1714205;28;20210;-68
2023/01/31 10:37:34;;;;;;;9.02;4.78;;;6.70;97.20;;;;;;1718773;28;20197;-68
2023/01/31 10:38:30;;;;;;;10.30;4.05;;;6.60;97.20;;;;;;1720891;28;20209;-69
2023/01/31 10:39:28;;;;;;;7.38;3.97;;;6.60;97.20;;;;;;1720832;28;20572;-68
2023/01/31 10:40:24;;;;;;;5.45;4.03;;;6.60;97.20;;;;;;1720742;28;20663;-68